createdAt,value
2023-03-27T00:01:13.315Z,52.26
2023-03-27T00:03:40.506Z,52.10
2023-03-27T00:06:11.275Z,52.26
2023-03-27T00:08:38.363Z,52.21
2023-03-27T00:11:07.134Z,52.05
2023-03-27T00:13:33.979Z,52.02
2023-03-27T00:16:01.076Z,52.29
2023-03-27T00:18:29.666Z,51.78
2023-03-27T00:21:01.275Z,51.49
2023-03-27T00:23:31.843Z,51.98
2023-03-27T00:25:59.213Z,51.81
2023-03-27T00:28:28.640Z,52.05
2023-03-27T00:30:57.360Z,52.21
2023-03-27T00:33:25.405Z,52.18
2023-03-27T00:35:52.436Z,52.03
2023-03-27T00:38:19.451Z,52.20
2023-03-27T00:40:47.896Z,52.10
2023-03-27T00:43:33.781Z,52.10
2023-03-27T00:46:06.017Z,52.13
2023-03-27T00:48:37.119Z,52.09
2023-03-27T00:51:05.825Z,52.08
2023-03-27T00:53:33.196Z,52.23
2023-03-27T00:56:04.087Z,52.18
2023-03-27T00:58:56.882Z,52.23
2023-03-27T01:01:27.274Z,52.22
2023-03-27T01:03:55.910Z,52.25
2023-03-27T01:06:24.505Z,52.37
2023-03-27T01:08:51.040Z,52.18
2023-03-27T01:11:43.667Z,52.21
2023-03-27T01:14:26.945Z,52.38
2023-03-27T01:17:07.003Z,52.45
2023-03-27T01:19:53.398Z,52.21
2023-03-27T01:23:05.161Z,52.33
2023-03-27T01:26:11.921Z,52.45
2023-03-27T01:29:25.227Z,52.18
2023-03-27T01:32:20.219Z,52.36
2023-03-27T01:35:05.021Z,52.21
2023-03-27T01:38:03.816Z,52.21
2023-03-27T01:40:34.529Z,52.45
2023-03-27T01:43:39.510Z,52.17
2023-03-27T01:46:21.054Z,52.17
2023-03-27T01:48:59.081Z,52.11
2023-03-27T01:51:34.188Z,52.08
2023-03-27T01:54:13.663Z,52.27
2023-03-27T01:56:51.649Z,52.25
2023-03-27T01:59:21.688Z,52.45
2023-03-27T02:01:54.615Z,52.20
2023-03-27T02:04:27.389Z,52.14
2023-03-27T02:07:02.750Z,52.06
2023-03-27T02:09:44.210Z,52.25
2023-03-27T02:12:16.981Z,52.19
2023-03-27T02:14:52.938Z,51.94
2023-03-27T02:17:26.132Z,52.30
2023-03-27T02:19:59.655Z,51.93
2023-03-27T02:22:38.062Z,51.76
2023-03-27T02:25:21.378Z,51.91
2023-03-27T02:27:53.099Z,52.00
2023-03-27T02:30:31.277Z,52.04
2023-03-27T02:33:27.803Z,51.90
2023-03-27T02:36:22.193Z,51.82
2023-03-27T02:39:03.405Z,52.01
2023-03-27T02:41:59.364Z,51.90
2023-03-27T02:44:51.805Z,51.86
2023-03-27T02:47:32.692Z,52.17
2023-03-27T02:50:10.774Z,52.03
2023-03-27T02:52:45.511Z,52.10
2023-03-27T02:55:17.554Z,52.15
2023-03-27T02:57:52.022Z,52.10
2023-03-27T03:00:25.919Z,52.24
2023-03-27T03:03:00.562Z,52.10
2023-03-27T03:05:27.564Z,52.21
2023-03-27T03:07:54.507Z,52.28
2023-03-27T03:10:21.518Z,52.25
2023-03-27T03:12:48.497Z,52.15
2023-03-27T03:15:15.337Z,52.03
2023-03-27T03:17:42.074Z,52.01
2023-03-27T03:20:09.890Z,51.69
2023-03-27T03:22:39.989Z,52.03
2023-03-27T03:25:07.753Z,52.18
2023-03-27T03:27:34.290Z,52.09
2023-03-27T03:30:01.299Z,52.37
2023-03-27T03:32:28.111Z,52.06
2023-03-27T03:34:57.053Z,51.80
2023-03-27T03:37:28.690Z,51.90
2023-03-27T03:39:55.925Z,52.17
2023-03-27T03:42:23.799Z,51.91
2023-03-27T03:44:50.868Z,52.05
2023-03-27T03:47:17.458Z,51.87
2023-03-27T03:49:44.094Z,51.99
2023-03-27T03:52:10.753Z,52.08
2023-03-27T03:54:38.852Z,51.88
2023-03-27T03:57:05.640Z,51.82
2023-03-27T03:59:32.635Z,52.23
2023-03-27T04:01:59.273Z,51.93
2023-03-27T04:04:25.867Z,51.79
2023-03-27T04:06:53.158Z,51.94
2023-03-27T04:09:19.810Z,51.82
2023-03-27T04:11:47.084Z,51.84
2023-03-27T04:14:13.810Z,51.59
2023-03-27T04:16:40.607Z,51.84
2023-03-27T04:19:07.236Z,51.67
2023-03-27T04:21:33.732Z,51.63
2023-03-27T04:24:02.754Z,51.76
2023-03-27T04:26:29.727Z,51.78
2023-03-27T04:28:56.647Z,51.58
2023-03-27T04:31:24.460Z,51.76
2023-03-27T04:33:52.534Z,51.58
2023-03-27T04:36:19.803Z,51.75
2023-03-27T04:38:47.990Z,51.60
2023-03-27T04:41:14.739Z,51.58
2023-03-27T04:43:44.455Z,51.59
2023-03-27T04:46:11.069Z,51.40
2023-03-27T04:48:39.030Z,51.52
2023-03-27T04:51:09.386Z,51.45
2023-03-27T04:53:38.146Z,51.34
2023-03-27T04:56:07.577Z,51.18
2023-03-27T04:58:37.334Z,51.24
2023-03-27T05:01:06.276Z,50.98
2023-03-27T05:03:43.535Z,51.05
2023-03-27T05:06:10.199Z,51.08
2023-03-27T05:08:36.699Z,51.17
2023-03-27T05:11:03.291Z,51.08
2023-03-27T05:13:29.791Z,50.97
2023-03-27T05:15:59.165Z,51.09
2023-03-27T05:18:26.386Z,51.02
2023-03-27T05:20:53.315Z,50.96
2023-03-27T05:23:19.819Z,51.05
2023-03-27T05:25:59.881Z,50.79
2023-03-27T05:28:27.556Z,50.97
2023-03-27T05:30:54.276Z,51.00
2023-03-27T05:33:20.951Z,51.06
2023-03-27T05:35:49.974Z,50.97
2023-03-27T05:38:16.951Z,51.09
2023-03-27T05:40:43.550Z,50.97
2023-03-27T05:43:10.532Z,50.99
2023-03-27T05:45:37.282Z,51.01
2023-03-27T05:48:04.193Z,51.08
2023-03-27T05:50:33.531Z,51.03
2023-03-27T05:53:07.957Z,50.92
2023-03-27T05:55:34.558Z,51.11
2023-03-27T05:58:01.048Z,51.03
2023-03-27T06:00:28.493Z,50.81
2023-03-27T06:02:59.689Z,51.03
2023-03-27T06:05:29.225Z,50.98
2023-03-27T06:07:59.849Z,50.88
2023-03-27T06:10:29.035Z,50.97
2023-03-27T06:13:05.080Z,51.08
2023-03-27T06:15:33.041Z,51.36
2023-03-27T06:17:59.594Z,51.15
2023-03-27T06:20:26.242Z,51.02
2023-03-27T06:22:55.719Z,50.91
2023-03-27T06:25:24.149Z,50.96
2023-03-27T06:27:51.483Z,51.04
2023-03-27T06:30:20.953Z,51.22
2023-03-27T06:32:54.214Z,51.08
2023-03-27T06:35:21.684Z,50.92
2023-03-27T06:37:51.368Z,51.22
2023-03-27T06:40:23.826Z,51.11
2023-03-27T06:42:55.934Z,51.13
2023-03-27T06:45:25.091Z,51.06
2023-03-27T06:48:17.981Z,51.04
2023-03-27T06:50:48.842Z,51.32
2023-03-27T06:53:26.672Z,51.34
2023-03-27T06:55:54.633Z,51.38
2023-03-27T06:58:21.827Z,51.40
2023-03-27T07:00:50.327Z,51.35
2023-03-27T07:03:19.121Z,51.32
2023-03-27T07:05:45.925Z,51.45
2023-03-27T07:10:47.027Z,51.50
2023-03-27T07:13:17.705Z,51.59
2023-03-27T07:15:44.191Z,51.77
2023-03-27T07:18:11.500Z,51.69
2023-03-27T07:20:38.237Z,51.73
2023-03-27T07:23:04.955Z,51.56
2023-03-27T07:25:37.087Z,51.71
2023-03-27T07:28:06.443Z,51.44
2023-03-27T07:30:33.941Z,51.51
2023-03-27T07:33:00.521Z,51.57
2023-03-27T07:35:27.400Z,51.57
2023-03-27T07:37:54.639Z,51.55
2023-03-27T07:40:33.365Z,51.69
2023-03-27T07:43:07.233Z,52.00
2023-03-27T07:45:34.922Z,51.33
2023-03-27T07:48:09.014Z,51.61
2023-03-27T07:50:36.183Z,51.23
2023-03-27T07:53:02.799Z,51.70
2023-03-27T07:55:32.327Z,51.33
2023-03-27T07:58:02.241Z,51.13
2023-03-27T08:00:31.350Z,51.19
2023-03-27T08:03:09.740Z,50.98
2023-03-27T08:05:37.205Z,50.94
2023-03-27T08:08:04.984Z,51.12
2023-03-27T08:10:31.478Z,51.21
2023-03-27T08:12:57.995Z,50.96
2023-03-27T08:15:25.296Z,51.20
2023-03-27T08:17:54.604Z,50.88
2023-03-27T08:20:23.669Z,50.84
2023-03-27T08:22:52.549Z,51.23
2023-03-27T08:25:19.588Z,50.83
2023-03-27T08:27:46.794Z,50.80
2023-03-27T08:30:16.646Z,50.64
2023-03-27T08:32:44.038Z,50.69
2023-03-27T08:35:11.222Z,50.42
2023-03-27T08:37:38.160Z,50.70
2023-03-27T08:40:13.878Z,50.53
2023-03-27T08:42:44.149Z,50.11
2023-03-27T08:45:22.798Z,50.27
2023-03-27T08:48:14.748Z,50.30
2023-03-27T08:50:46.512Z,50.28
2023-03-27T08:53:40.457Z,49.94
2023-03-27T08:56:18.305Z,49.84
2023-03-27T08:58:46.087Z,49.77
2023-03-27T09:01:46.800Z,49.53
2023-03-27T09:04:28.591Z,49.46
2023-03-27T09:07:05.805Z,49.86
2023-03-27T09:10:00.136Z,49.47
2023-03-27T09:12:52.562Z,49.20
2023-03-27T09:15:26.310Z,49.22
2023-03-27T09:18:07.240Z,48.87
2023-03-27T09:20:38.492Z,48.96
2023-03-27T09:23:24.323Z,48.87
2023-03-27T09:25:56.571Z,48.82
2023-03-27T09:28:51.377Z,48.62
2023-03-27T09:31:29.093Z,48.44
2023-03-27T09:33:59.714Z,48.39
2023-03-27T09:36:26.258Z,48.25
2023-03-27T09:38:58.677Z,48.39
2023-03-27T09:41:46.594Z,48.17
2023-03-27T09:44:25.247Z,48.19
2023-03-27T09:46:58.892Z,48.28
2023-03-27T09:49:26.956Z,48.28
2023-03-27T09:51:59.500Z,48.24
2023-03-27T09:54:31.754Z,48.21
2023-03-27T09:57:11.381Z,48.32
2023-03-27T09:59:41.981Z,48.10
2023-03-27T10:02:23.970Z,47.99
2023-03-27T10:05:12.074Z,47.97
2023-03-27T10:07:41.482Z,48.04
2023-03-27T10:10:27.741Z,47.98
2023-03-27T10:12:57.245Z,47.98
2023-03-27T10:15:29.368Z,48.08
2023-03-27T10:17:56.679Z,47.64
2023-03-27T10:20:24.184Z,47.69
2023-03-27T10:23:23.479Z,47.67
2023-03-27T10:25:51.982Z,47.53
2023-03-27T10:28:30.504Z,47.28
2023-03-27T10:31:06.570Z,47.31
2023-03-27T10:33:40.669Z,47.48
2023-03-27T10:36:09.636Z,47.33
2023-03-27T10:38:39.275Z,47.44
2023-03-27T10:41:14.328Z,47.15
2023-03-27T10:43:46.942Z,46.92
2023-03-27T10:46:23.117Z,47.23
2023-03-27T10:48:58.472Z,47.38
2023-03-27T10:51:51.844Z,47.13
2023-03-27T10:54:27.921Z,47.29
2023-03-27T10:57:17.213Z,47.11
2023-03-27T11:00:32.553Z,46.65
2023-03-27T11:03:30.151Z,46.90
2023-03-27T11:06:00.220Z,46.83
2023-03-27T11:08:56.546Z,46.72
2023-03-27T11:11:28.235Z,46.94
2023-03-27T11:14:02.200Z,47.05
2023-03-27T11:16:35.326Z,47.05
2023-03-27T11:19:34.065Z,46.91
2023-03-27T11:22:10.013Z,46.71
2023-03-27T11:24:47.692Z,47.05
2023-03-27T11:27:21.030Z,46.73
2023-03-27T11:30:05.378Z,46.90
2023-03-27T11:32:40.855Z,47.07
2023-03-27T11:35:15.413Z,46.86
2023-03-27T11:37:57.793Z,47.01
2023-03-27T11:40:45.830Z,46.86
2023-03-27T11:43:13.947Z,46.89
2023-03-27T11:45:58.720Z,46.65
2023-03-27T11:48:34.094Z,46.97
2023-03-27T11:51:08.701Z,46.67
2023-03-27T11:53:43.834Z,46.73
2023-03-27T11:56:16.790Z,46.75
2023-03-27T11:58:56.588Z,46.61
2023-03-27T12:01:52.253Z,46.59
2023-03-27T12:04:28.258Z,46.43
2023-03-27T12:07:04.850Z,46.38
2023-03-27T12:09:47.159Z,46.38
2023-03-27T12:12:13.605Z,45.81
2023-03-27T12:15:18.903Z,45.87
2023-03-27T12:17:48.337Z,46.28
2023-03-27T12:20:52.500Z,46.17
2023-03-27T12:23:53.248Z,45.28
2023-03-27T12:26:47.963Z,45.72
2023-03-27T12:29:30.445Z,44.88
2023-03-27T12:32:08.183Z,45.17
2023-03-27T12:35:06.399Z,44.79
2023-03-27T12:37:48.921Z,45.02
2023-03-27T12:40:41.146Z,44.89
2023-03-27T12:43:21.791Z,44.84
2023-03-27T12:46:09.774Z,44.42
2023-03-27T12:48:48.564Z,44.55
2023-03-27T12:51:19.918Z,43.72
2023-03-27T12:53:54.367Z,43.92
2023-03-27T12:56:26.866Z,43.73
2023-03-27T12:58:55.513Z,43.37
2023-03-27T13:01:51.603Z,43.02
2023-03-27T13:05:08.702Z,43.18
2023-03-27T13:08:07.124Z,42.98
2023-03-27T13:10:39.419Z,42.74
2023-03-27T13:13:44.740Z,42.29
2023-03-27T13:16:21.531Z,41.38
2023-03-27T13:19:06.752Z,41.68
2023-03-27T13:21:38.593Z,41.21
2023-03-27T13:24:24.222Z,41.39
2023-03-27T13:27:12.118Z,41.38
2023-03-27T13:29:39.228Z,41.46
2023-03-27T13:32:39.036Z,41.15
2023-03-27T13:35:27.188Z,40.91
2023-03-27T13:37:58.275Z,39.44
2023-03-27T13:40:36.632Z,39.89
2023-03-27T13:43:16.690Z,39.99
2023-03-27T13:45:48.140Z,39.64
2023-03-27T13:48:42.611Z,39.41
2023-03-27T13:51:38.060Z,39.14
2023-03-27T13:54:16.924Z,39.16
2023-03-27T13:57:11.587Z,38.96
2023-03-27T14:00:42.666Z,38.63
2023-03-27T14:04:06.303Z,37.25
2023-03-27T14:06:41.920Z,38.28
2023-03-27T14:09:39.419Z,38.38
2023-03-27T14:12:25.305Z,38.16
2023-03-27T14:15:29.052Z,38.06
2023-03-27T14:18:04.319Z,37.33
2023-03-27T14:20:43.500Z,38.15
2023-03-27T14:23:17.936Z,38.15
2023-03-27T14:25:53.698Z,37.78
2023-03-27T14:28:51.700Z,37.56
2023-03-27T14:31:21.113Z,37.55
2023-03-27T14:33:56.314Z,37.40
2023-03-27T14:36:26.009Z,36.93
2023-03-27T14:38:53.128Z,37.17
2023-03-27T14:41:23.927Z,36.27
2023-03-27T14:43:53.107Z,36.59
2023-03-27T14:46:24.189Z,35.74
2023-03-27T14:48:55.941Z,36.22
2023-03-27T14:51:27.099Z,35.50
2023-03-27T14:54:01.997Z,35.78
2023-03-27T14:56:36.945Z,35.60
2023-03-27T14:59:13.200Z,35.69
2023-03-27T15:01:41.248Z,35.24
2023-03-27T15:04:11.052Z,35.42
2023-03-27T15:06:38.410Z,35.55
2023-03-27T15:09:14.540Z,34.92
2023-03-27T15:11:44.379Z,35.12
2023-03-27T15:14:18.323Z,35.57
2023-03-27T15:16:53.030Z,35.25
2023-03-27T15:19:20.987Z,35.72
2023-03-27T15:22:01.290Z,35.41
2023-03-27T15:24:50.955Z,35.13
2023-03-27T15:27:27.977Z,35.28
2023-03-27T15:30:03.133Z,35.08
2023-03-27T15:32:44.573Z,35.38
2023-03-27T15:35:20.930Z,35.18
2023-03-27T15:37:47.977Z,34.79
2023-03-27T15:40:23.763Z,35.42
2023-03-27T15:42:50.406Z,35.42
2023-03-27T15:45:21.383Z,35.01
2023-03-27T15:48:06.709Z,35.26
2023-03-27T15:50:34.048Z,34.73
2023-03-27T15:53:01.795Z,35.11
2023-03-27T15:55:32.619Z,35.48
2023-03-27T15:58:00.233Z,34.97
2023-03-27T16:00:28.845Z,35.24
2023-03-27T16:02:55.896Z,34.95
2023-03-27T16:05:22.816Z,35.12
2023-03-27T16:07:49.529Z,35.57
2023-03-27T16:10:32.618Z,35.79
2023-03-27T16:13:02.911Z,36.05
2023-03-27T16:15:43.705Z,35.76
2023-03-27T16:18:24.845Z,35.96
2023-03-27T16:20:51.416Z,36.17
2023-03-27T16:23:17.896Z,36.59
2023-03-27T16:25:44.492Z,36.54
2023-03-27T16:28:11.145Z,36.52
2023-03-27T16:30:41.030Z,36.28
2023-03-27T16:33:19.008Z,36.45
2023-03-27T16:35:45.937Z,36.61
2023-03-27T16:38:13.912Z,37.41
2023-03-27T16:40:40.808Z,37.36
2023-03-27T16:43:07.390Z,37.26
2023-03-27T16:45:34.370Z,36.89
2023-03-27T16:48:01.174Z,36.74
2023-03-27T16:50:29.698Z,36.35
2023-03-27T16:52:56.471Z,36.07
2023-03-27T16:55:24.123Z,35.78
2023-03-27T16:57:52.414Z,35.59
2023-03-27T17:00:20.086Z,35.46
2023-03-27T17:02:47.132Z,35.42
2023-03-27T17:05:14.645Z,35.36
2023-03-27T17:07:46.498Z,35.29
2023-03-27T17:10:13.198Z,35.19
2023-03-27T17:12:39.733Z,35.16
2023-03-27T17:15:06.928Z,35.20
2023-03-27T17:17:33.480Z,35.28
2023-03-27T17:20:00.660Z,35.62
2023-03-27T17:22:29.936Z,35.58
2023-03-27T17:24:57.967Z,35.53
2023-03-27T17:27:26.673Z,35.08
2023-03-27T17:29:55.877Z,35.40
2023-03-27T17:32:23.537Z,35.29
2023-03-27T17:34:52.047Z,35.41
2023-03-27T17:37:20.062Z,35.43
2023-03-27T17:39:46.644Z,35.47
2023-03-27T17:42:13.160Z,35.85
2023-03-27T17:44:41.409Z,35.54
2023-03-27T17:47:08.468Z,35.83
2023-03-27T17:49:35.216Z,35.29
2023-03-27T17:52:07.618Z,35.89
2023-03-27T17:54:34.794Z,35.68
2023-03-27T17:57:01.667Z,35.68
2023-03-27T17:59:30.387Z,35.63
2023-03-27T18:01:57.874Z,35.81
2023-03-27T18:04:24.765Z,35.97
2023-03-27T18:06:51.835Z,35.83
2023-03-27T18:09:18.933Z,36.13
2023-03-27T18:11:46.012Z,36.20
2023-03-27T18:14:12.783Z,36.31
2023-03-27T18:16:39.412Z,36.30
2023-03-27T18:19:06.141Z,36.17
2023-03-27T18:21:32.665Z,36.07
2023-03-27T18:23:59.686Z,36.10
2023-03-27T18:26:26.821Z,36.28
2023-03-27T18:28:53.416Z,36.31
2023-03-27T18:31:20.078Z,36.31
2023-03-27T18:33:46.751Z,36.29
2023-03-27T18:36:13.380Z,36.24
2023-03-27T18:38:41.731Z,36.05
2023-03-27T18:41:09.728Z,36.06
2023-03-27T18:43:36.569Z,36.32
2023-03-27T18:46:05.828Z,36.31
2023-03-27T18:48:32.961Z,36.33
2023-03-27T18:51:02.662Z,36.43
2023-03-27T18:53:30.289Z,36.42
2023-03-27T18:55:58.517Z,36.52
2023-03-27T18:58:27.532Z,36.73
2023-03-27T19:00:55.686Z,36.66
2023-03-27T19:03:24.223Z,36.75
2023-03-27T19:05:52.087Z,36.54
2023-03-27T19:08:20.899Z,36.58
2023-03-27T19:10:47.534Z,36.44
2023-03-27T19:13:14.049Z,36.67
2023-03-27T19:15:41.865Z,36.70
2023-03-27T19:18:08.920Z,36.82
2023-03-27T19:20:35.643Z,36.82
2023-03-27T19:23:02.176Z,36.82
2023-03-27T19:25:29.003Z,36.82
2023-03-27T19:27:55.858Z,37.02
2023-03-27T19:30:22.397Z,37.02
2023-03-27T19:32:50.488Z,36.99
2023-03-27T19:35:17.143Z,37.33
2023-03-27T19:37:43.580Z,37.42
2023-03-27T19:42:37.117Z,37.39
2023-03-27T19:45:04.273Z,37.50
2023-03-27T19:47:30.892Z,37.57
2023-03-27T19:49:57.590Z,37.70
2023-03-27T19:52:24.088Z,37.51
2023-03-27T19:54:50.722Z,37.30
2023-03-27T19:57:17.265Z,37.68
2023-03-27T19:59:43.805Z,37.46
2023-03-27T20:02:12.739Z,37.47
2023-03-27T20:04:39.696Z,37.42
2023-03-27T20:07:09.994Z,37.31
2023-03-27T20:09:37.104Z,37.48
2023-03-27T20:12:04.778Z,37.26
2023-03-27T20:14:31.342Z,37.39
2023-03-27T20:16:57.832Z,37.43
2023-03-27T20:19:28.791Z,37.65
2023-03-27T20:21:55.486Z,37.49
2023-03-27T20:24:22.067Z,37.46
2023-03-27T20:26:52.374Z,37.42
2023-03-27T20:29:22.946Z,37.31
2023-03-27T20:31:49.718Z,37.51
2023-03-27T20:34:19.633Z,37.45
2023-03-27T20:36:46.628Z,37.46
2023-03-27T20:39:16.542Z,37.43
2023-03-27T20:41:43.039Z,37.16
2023-03-27T20:44:16.366Z,37.46
2023-03-27T20:46:47.829Z,37.08
2023-03-27T20:49:37.557Z,37.17
2023-03-27T20:52:08.171Z,36.94
2023-03-27T20:54:34.815Z,37.17
2023-03-27T20:57:02.880Z,37.00
2023-03-27T20:59:30.570Z,36.86
2023-03-27T21:01:57.569Z,36.98
2023-03-27T21:04:26.043Z,36.92
2023-03-27T21:06:54.916Z,36.63
2023-03-27T21:09:26.431Z,36.60
2023-03-27T21:11:54.509Z,36.76
2023-03-27T21:14:21.215Z,36.82
2023-03-27T21:16:47.739Z,36.57
2023-03-27T21:19:14.268Z,36.81
2023-03-27T21:21:40.922Z,36.87
2023-03-27T21:24:07.714Z,36.85
2023-03-27T21:26:34.670Z,36.77
2023-03-27T21:29:01.422Z,36.84
2023-03-27T21:31:28.016Z,37.06
2023-03-27T21:33:54.591Z,37.19
2023-03-27T21:36:21.418Z,37.43
2023-03-27T21:38:47.964Z,37.35
2023-03-27T21:41:16.331Z,37.39
2023-03-27T21:43:43.368Z,37.79
2023-03-27T21:46:10.628Z,38.00
2023-03-27T21:48:37.540Z,38.28
2023-03-27T21:51:06.123Z,38.41
2023-03-27T21:53:32.714Z,38.70
2023-03-27T21:55:59.698Z,38.96
2023-03-27T21:58:26.865Z,38.89
2023-03-27T22:00:56.449Z,39.60
2023-03-27T22:03:24.247Z,39.70
2023-03-27T22:06:07.852Z,39.92
2023-03-27T22:08:37.999Z,40.05
2023-03-27T22:11:04.742Z,40.44
2023-03-27T22:13:31.239Z,40.46
2023-03-27T22:15:58.052Z,40.34
2023-03-27T22:18:24.931Z,40.42
2023-03-27T22:20:51.503Z,40.63
2023-03-27T22:23:18.032Z,40.64
2023-03-27T22:25:51.961Z,40.67
2023-03-27T22:28:18.430Z,40.74
2023-03-27T22:30:44.911Z,40.98
2023-03-27T22:33:11.392Z,40.96
2023-03-27T22:35:37.997Z,40.96
2023-03-27T22:38:04.556Z,41.07
2023-03-27T22:40:31.116Z,41.30
2023-03-27T22:42:57.597Z,41.25
2023-03-27T22:45:24.080Z,41.41
2023-03-27T22:47:50.691Z,41.69
2023-03-27T22:50:17.412Z,41.57
2023-03-27T22:52:43.913Z,41.72
2023-03-27T22:55:10.686Z,41.62
2023-03-27T22:57:37.705Z,41.79
2023-03-27T23:00:08.005Z,41.63
2023-03-27T23:02:34.854Z,41.87
2023-03-27T23:05:02.017Z,41.83
2023-03-27T23:07:28.576Z,41.96
2023-03-27T23:09:55.063Z,42.01
2023-03-27T23:12:21.535Z,42.12
2023-03-27T23:14:48.027Z,42.12
2023-03-27T23:17:14.593Z,41.98
2023-03-27T23:19:41.145Z,42.26
2023-03-27T23:22:07.623Z,42.28
2023-03-27T23:24:34.110Z,42.17
2023-03-27T23:27:00.621Z,42.39
2023-03-27T23:29:27.118Z,42.18
2023-03-27T23:31:53.709Z,42.17
2023-03-27T23:34:20.359Z,42.35
2023-03-27T23:36:47.060Z,42.36
2023-03-27T23:39:13.551Z,42.33
2023-03-27T23:41:40.051Z,42.42
2023-03-27T23:44:06.523Z,42.52
2023-03-27T23:46:33.801Z,42.46
2023-03-27T23:49:01.296Z,42.46
2023-03-27T23:51:27.815Z,42.63
2023-03-27T23:53:54.295Z,42.48
2023-03-27T23:56:20.904Z,42.73
2023-03-27T23:58:47.431Z,42.76
